createdAt,value
2023-01-08T00:01:38.065Z,44.70
2023-01-08T00:04:06.710Z,48.60
2023-01-08T00:06:35.696Z,47.60
2023-01-08T00:09:03.938Z,42.30
2023-01-08T00:11:31.962Z,44.10
2023-01-08T00:13:59.940Z,43.70
2023-01-08T00:16:28.305Z,47.10
2023-01-08T00:18:56.161Z,43.60
2023-01-08T00:21:24.131Z,44.80
2023-01-08T00:23:52.347Z,47.20
2023-01-08T00:26:20.764Z,37.50
2023-01-08T00:28:48.688Z,44.10
2023-01-08T00:31:16.544Z,40.10
2023-01-08T00:33:44.710Z,40.50
2023-01-08T00:36:14.028Z,38.70
2023-01-08T00:38:42.668Z,42.30
2023-01-08T00:41:11.193Z,40.90
2023-01-08T00:43:38.960Z,41.40
2023-01-08T00:46:07.473Z,44.50
2023-01-08T00:48:39.062Z,36.60
2023-01-08T00:51:08.671Z,43.70
2023-01-08T00:53:38.344Z,45.40
2023-01-08T00:56:08.050Z,44.00
2023-01-08T00:58:36.182Z,38.00
2023-01-08T01:01:10.275Z,41.30
2023-01-08T01:03:38.624Z,44.60
2023-01-08T01:06:07.113Z,45.50
2023-01-08T01:08:35.149Z,41.90
2023-01-08T01:11:07.585Z,43.40
2023-01-08T01:13:35.567Z,42.80
2023-01-08T01:16:03.534Z,43.20
2023-01-08T01:18:32.077Z,39.70
2023-01-08T01:21:00.202Z,39.10
2023-01-08T01:23:29.186Z,43.10
2023-01-08T01:25:56.923Z,40.40
2023-01-08T01:28:24.814Z,42.70
2023-01-08T01:30:57.177Z,42.70
2023-01-08T01:33:25.170Z,44.00
2023-01-08T01:35:59.596Z,40.50
2023-01-08T01:38:27.487Z,38.40
2023-01-08T01:40:55.504Z,40.90
2023-01-08T01:43:38.494Z,40.80
2023-01-08T01:46:16.461Z,42.20
2023-01-08T01:48:46.963Z,40.70
2023-01-08T01:51:15.026Z,43.50
2023-01-08T01:53:42.895Z,38.30
2023-01-08T01:56:11.060Z,38.80
2023-01-08T01:58:39.240Z,39.90
2023-01-08T02:01:08.362Z,39.10
2023-01-08T02:03:37.653Z,41.00
2023-01-08T02:06:24.234Z,44.20
2023-01-08T02:08:52.183Z,42.00
2023-01-08T02:11:37.822Z,40.80
2023-01-08T02:14:19.894Z,42.90
2023-01-08T02:16:56.180Z,39.80
2023-01-08T02:19:27.093Z,39.60
2023-01-08T02:22:03.552Z,41.80
2023-01-08T02:24:50.289Z,45.40
2023-01-08T02:27:19.662Z,39.80
2023-01-08T02:29:48.053Z,40.90
2023-01-08T02:32:16.230Z,39.60
2023-01-08T02:34:44.089Z,39.40
2023-01-08T02:37:12.061Z,40.40
2023-01-08T02:39:48.719Z,43.40
2023-01-08T02:42:20.686Z,40.00
2023-01-08T02:44:48.813Z,39.00
2023-01-08T02:47:23.823Z,38.00
2023-01-08T02:49:54.376Z,38.30
2023-01-08T02:52:23.514Z,41.50
2023-01-08T02:54:51.886Z,42.20
2023-01-08T02:57:20.261Z,44.30
2023-01-08T02:59:49.608Z,42.90
2023-01-08T03:02:18.706Z,39.20
2023-01-08T03:04:52.463Z,39.30
2023-01-08T03:07:20.850Z,39.10
2023-01-08T03:09:48.692Z,39.10
2023-01-08T03:12:43.207Z,40.30
2023-01-08T03:15:13.441Z,38.30
2023-01-08T03:17:46.883Z,40.60
2023-01-08T03:20:16.419Z,36.30
2023-01-08T03:22:46.763Z,43.70
2023-01-08T03:25:15.748Z,39.30
2023-01-08T03:27:45.687Z,39.80
2023-01-08T03:30:14.305Z,41.80
2023-01-08T03:32:43.372Z,38.50
2023-01-08T03:35:13.511Z,38.30
2023-01-08T03:37:44.308Z,38.70
2023-01-08T03:40:16.677Z,43.90
2023-01-08T03:42:44.453Z,40.40
2023-01-08T03:45:13.103Z,42.70
2023-01-08T03:47:41.885Z,44.00
2023-01-08T03:50:11.297Z,42.10
2023-01-08T03:52:39.081Z,44.30
2023-01-08T03:55:07.189Z,43.50
2023-01-08T03:57:35.067Z,41.40
2023-01-08T04:00:04.111Z,43.80
2023-01-08T04:02:32.286Z,41.40
2023-01-08T04:05:01.048Z,41.80
2023-01-08T04:07:29.166Z,40.00
2023-01-08T04:09:57.394Z,42.70
2023-01-08T04:12:25.254Z,41.60
2023-01-08T04:14:53.231Z,41.00
2023-01-08T04:17:21.903Z,36.70
2023-01-08T04:19:49.782Z,40.50
2023-01-08T04:22:18.670Z,42.50
2023-01-08T04:24:46.927Z,44.00
2023-01-08T04:27:14.808Z,42.70
2023-01-08T04:29:42.892Z,37.50
2023-01-08T04:32:10.757Z,39.20
2023-01-08T04:34:38.607Z,44.00
2023-01-08T04:37:06.988Z,43.80
2023-01-08T04:39:34.970Z,39.80
2023-01-08T04:42:02.893Z,41.90
2023-01-08T04:44:31.296Z,42.30
2023-01-08T04:46:58.989Z,39.40
2023-01-08T04:49:27.435Z,40.40
2023-01-08T04:51:55.920Z,42.10
2023-01-08T04:54:24.329Z,44.80
2023-01-08T04:56:52.583Z,45.40
2023-01-08T04:59:20.371Z,42.60
2023-01-08T05:01:48.666Z,40.50
2023-01-08T05:04:16.805Z,40.90
2023-01-08T05:06:44.735Z,44.20
2023-01-08T05:09:12.762Z,44.30
2023-01-08T05:11:41.313Z,45.00
2023-01-08T05:14:09.519Z,44.60
2023-01-08T05:16:37.639Z,41.00
2023-01-08T05:19:05.510Z,41.70
2023-01-08T05:21:33.587Z,45.10
2023-01-08T05:24:01.351Z,48.50
2023-01-08T05:26:29.250Z,44.70
2023-01-08T05:28:57.671Z,46.10
2023-01-08T05:31:25.837Z,44.50
2023-01-08T05:33:53.878Z,41.90
2023-01-08T05:36:21.752Z,42.20
2023-01-08T05:38:49.650Z,47.70
2023-01-08T05:41:17.740Z,43.90
2023-01-08T05:43:45.562Z,44.70
2023-01-08T05:46:13.850Z,46.40
2023-01-08T05:48:41.896Z,45.90
2023-01-08T05:51:09.921Z,43.90
2023-01-08T05:53:37.878Z,53.50
2023-01-08T05:56:09.144Z,48.50
2023-01-08T05:58:37.625Z,44.90
2023-01-08T06:01:06.816Z,44.30
2023-01-08T06:03:36.220Z,44.50
2023-01-08T06:06:05.308Z,49.10
2023-01-08T06:08:33.639Z,48.80
2023-01-08T06:11:02.688Z,47.30
2023-01-08T06:13:30.583Z,44.50
2023-01-08T06:16:00.322Z,48.70
2023-01-08T06:18:29.418Z,44.60
2023-01-08T06:20:57.532Z,45.60
2023-01-08T06:23:25.649Z,39.90
2023-01-08T06:25:54.343Z,46.40
2023-01-08T06:28:22.452Z,43.40
2023-01-08T06:30:50.726Z,42.40
2023-01-08T06:33:21.073Z,46.60
2023-01-08T06:35:49.379Z,44.60
2023-01-08T06:38:20.468Z,44.60
2023-01-08T06:40:49.264Z,40.50
2023-01-08T06:43:17.964Z,42.60
2023-01-08T06:45:52.535Z,42.60
2023-01-08T06:48:20.531Z,38.10
2023-01-08T06:50:48.936Z,41.50
2023-01-08T06:53:17.085Z,41.90
2023-01-08T06:55:44.995Z,43.50
2023-01-08T06:58:13.026Z,46.30
2023-01-08T07:00:41.216Z,45.60
2023-01-08T07:03:09.033Z,46.10
2023-01-08T07:05:37.196Z,50.40
2023-01-08T07:08:05.317Z,46.50
2023-01-08T07:10:34.583Z,44.20
2023-01-08T07:13:02.568Z,42.30
2023-01-08T07:15:30.440Z,47.10
2023-01-08T07:17:58.712Z,50.50
2023-01-08T07:20:26.799Z,46.70
2023-01-08T07:22:54.754Z,44.60
2023-01-08T07:25:24.107Z,46.80
2023-01-08T07:27:53.961Z,53.40
2023-01-08T07:30:29.761Z,50.20
2023-01-08T07:33:00.622Z,44.60
2023-01-08T07:35:29.699Z,46.00
2023-01-08T07:37:57.701Z,46.70
2023-01-08T07:40:25.717Z,46.60
2023-01-08T07:42:58.059Z,45.30
2023-01-08T07:45:26.803Z,46.40
2023-01-08T07:47:56.397Z,45.90
2023-01-08T07:50:24.500Z,46.80
2023-01-08T07:52:52.790Z,47.90
2023-01-08T07:55:20.628Z,45.00
2023-01-08T07:57:48.632Z,47.00
2023-01-08T08:00:16.714Z,48.60
2023-01-08T08:02:44.688Z,42.10
2023-01-08T08:05:13.219Z,43.40
2023-01-08T08:07:41.317Z,47.90
2023-01-08T08:10:09.691Z,42.30
2023-01-08T08:12:37.679Z,47.30
2023-01-08T08:15:06.253Z,46.40
2023-01-08T08:17:35.870Z,44.50
2023-01-08T08:20:04.356Z,45.30
2023-01-08T08:22:32.717Z,45.00
2023-01-08T08:25:01.023Z,45.30
2023-01-08T08:27:29.502Z,42.80
2023-01-08T08:29:59.895Z,47.00
2023-01-08T08:32:28.355Z,46.70
2023-01-08T08:34:57.155Z,46.10
2023-01-08T08:37:25.230Z,48.40
2023-01-08T08:39:53.307Z,47.60
2023-01-08T08:42:22.313Z,45.50
2023-01-08T08:44:50.226Z,42.40
2023-01-08T08:47:18.163Z,44.50
2023-01-08T08:49:46.014Z,44.70
2023-01-08T08:52:14.155Z,48.70
2023-01-08T08:54:42.351Z,47.90
2023-01-08T08:57:10.513Z,45.70
2023-01-08T08:59:38.501Z,43.80
2023-01-08T09:02:08.554Z,43.60
2023-01-08T09:04:37.057Z,48.80
2023-01-08T09:07:05.014Z,46.00
2023-01-08T09:09:33.218Z,48.10
2023-01-08T09:12:01.908Z,43.70
2023-01-08T09:14:29.973Z,43.80
2023-01-08T09:16:58.069Z,42.60
2023-01-08T09:19:26.322Z,40.80
2023-01-08T09:21:54.914Z,43.50
2023-01-08T09:24:22.902Z,42.50
2023-01-08T09:26:52.746Z,43.90
2023-01-08T09:29:21.273Z,41.40
2023-01-08T09:31:49.391Z,41.20
2023-01-08T09:34:17.360Z,42.40
2023-01-08T09:36:45.472Z,43.90
2023-01-08T09:39:13.857Z,39.60
2023-01-08T09:41:44.290Z,38.90
2023-01-08T09:44:15.116Z,40.50
2023-01-08T09:46:44.878Z,40.90
2023-01-08T09:49:16.480Z,37.70
2023-01-08T09:51:44.555Z,36.70
2023-01-08T09:54:14.931Z,37.30
2023-01-08T09:56:44.339Z,36.10
2023-01-08T09:59:17.054Z,39.10
2023-01-08T10:01:46.142Z,35.80
2023-01-08T10:04:15.675Z,36.30
2023-01-08T10:06:50.612Z,35.30
2023-01-08T10:09:21.393Z,44.00
2023-01-08T10:11:50.825Z,38.90
2023-01-08T10:14:30.237Z,34.00
2023-01-08T10:17:02.550Z,34.80
2023-01-08T10:19:32.576Z,31.20
2023-01-08T10:22:00.589Z,31.00
2023-01-08T10:24:36.369Z,31.90
2023-01-08T10:27:12.461Z,29.40
2023-01-08T10:29:42.041Z,31.40
2023-01-08T10:32:17.648Z,40.60
2023-01-08T10:34:47.828Z,29.80
2023-01-08T10:37:25.092Z,28.40
2023-01-08T10:39:54.807Z,30.80
2023-01-08T10:42:24.503Z,27.40
2023-01-08T10:45:06.915Z,31.50
2023-01-08T10:47:36.415Z,31.90
2023-01-08T10:50:15.559Z,24.70
2023-01-08T10:52:52.839Z,30.90
2023-01-08T10:55:23.667Z,26.70
2023-01-08T10:57:55.749Z,24.80
2023-01-08T11:00:24.826Z,24.20
2023-01-08T11:02:53.407Z,22.20
2023-01-08T11:05:28.983Z,23.40
2023-01-08T11:08:00.305Z,23.90
2023-01-08T11:10:28.887Z,23.00
2023-01-08T11:13:00.848Z,23.70
2023-01-08T11:15:30.844Z,22.10
2023-01-08T11:18:14.802Z,20.90
2023-01-08T11:20:43.026Z,19.70
2023-01-08T11:23:13.839Z,21.80
2023-01-08T11:25:43.420Z,18.80
2023-01-08T11:28:15.369Z,20.40
2023-01-08T11:30:50.318Z,22.70
2023-01-08T11:33:21.560Z,21.90
2023-01-08T11:36:13.629Z,21.00
2023-01-08T11:38:43.787Z,19.80
2023-01-08T11:41:29.219Z,21.00
2023-01-08T11:44:15.996Z,18.50
2023-01-08T11:46:50.825Z,19.70
2023-01-08T11:49:25.206Z,21.10
2023-01-08T11:51:56.572Z,20.10
2023-01-08T11:54:35.415Z,20.70
2023-01-08T11:57:03.487Z,24.80
2023-01-08T11:59:50.430Z,28.20
2023-01-08T12:02:21.695Z,23.60
2023-01-08T12:05:08.932Z,21.10
2023-01-08T12:07:37.859Z,20.40
2023-01-08T12:10:25.591Z,21.70
2023-01-08T12:13:00.460Z,22.60
2023-01-08T12:15:30.548Z,22.10
2023-01-08T12:18:05.461Z,23.60
2023-01-08T12:20:38.848Z,21.60
2023-01-08T12:23:21.674Z,22.30
2023-01-08T12:25:55.980Z,21.80
2023-01-08T12:28:27.349Z,22.10
2023-01-08T12:31:31.106Z,22.80
2023-01-08T12:34:05.484Z,21.80
2023-01-08T12:36:37.341Z,21.30
2023-01-08T12:39:10.364Z,24.10
2023-01-08T12:41:42.058Z,23.40
2023-01-08T12:44:17.407Z,21.00
2023-01-08T12:46:49.231Z,21.20
2023-01-08T12:49:21.706Z,21.20
2023-01-08T12:51:49.419Z,21.40
2023-01-08T12:54:23.513Z,22.50
2023-01-08T12:57:10.218Z,22.00
2023-01-08T13:02:10.010Z,22.10
2023-01-08T13:04:42.107Z,25.90
2023-01-08T13:07:23.238Z,24.80
2023-01-08T13:09:55.251Z,25.00
2023-01-08T13:12:28.340Z,23.30
2023-01-08T13:14:57.882Z,22.80
2023-01-08T13:17:27.041Z,23.70
2023-01-08T13:19:56.034Z,23.00
2023-01-08T13:22:26.468Z,21.70
2023-01-08T13:25:13.172Z,22.70
2023-01-08T13:27:45.335Z,20.10
2023-01-08T13:30:32.149Z,22.20
2023-01-08T13:33:01.446Z,25.20
2023-01-08T13:35:31.468Z,25.50
2023-01-08T13:38:19.931Z,24.00
2023-01-08T13:40:50.678Z,24.50
2023-01-08T13:43:28.987Z,20.30
2023-01-08T13:46:02.869Z,23.30
2023-01-08T13:48:32.764Z,21.50
2023-01-08T13:51:01.153Z,23.30
2023-01-08T13:53:29.454Z,23.90
2023-01-08T13:56:03.667Z,25.30
2023-01-08T13:58:33.967Z,22.00
2023-01-08T14:01:05.183Z,23.20
2023-01-08T14:03:36.004Z,21.80
2023-01-08T14:06:22.985Z,25.70
2023-01-08T14:08:53.429Z,27.20
2023-01-08T14:11:23.296Z,22.30
2023-01-08T14:13:52.206Z,21.60
2023-01-08T14:16:20.693Z,21.40
2023-01-08T14:18:49.979Z,19.00
2023-01-08T14:21:21.979Z,19.90
2023-01-08T14:23:50.813Z,19.10
2023-01-08T14:26:27.080Z,17.20
2023-01-08T14:28:55.259Z,19.70
2023-01-08T14:31:25.092Z,19.50
2023-01-08T14:33:54.779Z,18.30
2023-01-08T14:36:23.683Z,18.50
2023-01-08T14:38:52.520Z,109.50
2023-01-08T14:42:06.192Z,47.90
2023-01-08T14:44:39.121Z,29.80
2023-01-08T14:47:17.253Z,26.70
2023-01-08T14:49:49.886Z,20.30
2023-01-08T14:52:18.748Z,18.30
2023-01-08T14:54:54.794Z,20.20
2023-01-08T14:57:24.337Z,22.70
2023-01-08T14:59:57.608Z,27.00
2023-01-08T15:02:29.688Z,22.60
2023-01-08T15:05:21.085Z,21.50
2023-01-08T15:08:02.613Z,18.80
2023-01-08T15:10:31.101Z,20.70
2023-01-08T15:13:04.857Z,21.10
2023-01-08T15:15:34.754Z,23.80
2023-01-08T15:18:06.191Z,25.20
2023-01-08T15:20:36.758Z,25.70
2023-01-08T15:23:05.549Z,24.20
2023-01-08T15:25:35.468Z,26.00
2023-01-08T15:28:04.949Z,23.20
2023-01-08T15:30:44.598Z,35.10
2023-01-08T15:33:20.557Z,51.10
2023-01-08T15:35:49.600Z,31.30
2023-01-08T15:38:20.973Z,28.60
2023-01-08T15:40:49.893Z,25.90
2023-01-08T15:43:18.583Z,21.60
2023-01-08T15:45:48.129Z,24.50
2023-01-08T15:48:16.656Z,27.00
2023-01-08T15:50:45.347Z,22.10
2023-01-08T15:53:22.623Z,28.90
2023-01-08T15:58:21.328Z,22.90
2023-01-08T16:00:49.548Z,25.20
2023-01-08T16:03:18.088Z,23.20
2023-01-08T16:05:46.482Z,21.30
2023-01-08T16:08:14.707Z,20.00
2023-01-08T16:10:44.581Z,21.00
2023-01-08T16:13:13.437Z,22.00
2023-01-08T16:15:42.138Z,20.70
2023-01-08T16:18:12.170Z,21.20
2023-01-08T16:20:40.513Z,22.20
2023-01-08T16:23:10.361Z,23.50
2023-01-08T16:25:39.175Z,24.40
2023-01-08T16:28:07.288Z,21.80
2023-01-08T16:30:37.215Z,20.90
2023-01-08T16:33:05.373Z,22.90
2023-01-08T16:35:33.619Z,24.70
2023-01-08T16:38:02.042Z,25.70
2023-01-08T16:40:30.214Z,24.00
2023-01-08T16:43:05.956Z,24.50
2023-01-08T16:45:34.857Z,25.10
2023-01-08T16:48:03.251Z,23.60
2023-01-08T16:50:32.824Z,25.70
2023-01-08T16:53:01.199Z,29.30
2023-01-08T16:55:29.311Z,26.70
2023-01-08T16:57:58.949Z,25.90
2023-01-08T17:00:27.047Z,29.40
2023-01-08T17:02:56.234Z,29.70
2023-01-08T17:05:25.248Z,29.20
2023-01-08T17:07:54.031Z,32.30
2023-01-08T17:10:22.926Z,27.80
2023-01-08T17:12:51.504Z,30.00
2023-01-08T17:15:19.887Z,30.80
2023-01-08T17:17:48.049Z,27.00
2023-01-08T17:20:16.418Z,27.50
2023-01-08T17:22:45.012Z,25.30
2023-01-08T17:25:13.398Z,34.50
2023-01-08T17:27:42.381Z,28.50
2023-01-08T17:30:12.195Z,34.70
2023-01-08T17:32:40.878Z,32.50
2023-01-08T17:35:09.025Z,30.30
2023-01-08T17:37:38.159Z,34.90
2023-01-08T17:40:07.377Z,32.50
2023-01-08T17:42:37.158Z,36.50
2023-01-08T17:45:07.641Z,35.90
2023-01-08T17:47:37.860Z,31.20
2023-01-08T17:50:08.234Z,33.90
2023-01-08T17:52:36.693Z,45.20
2023-01-08T17:55:05.393Z,41.40
2023-01-08T17:57:36.965Z,34.10
2023-01-08T18:00:05.418Z,31.50
2023-01-08T18:02:33.769Z,35.60
2023-01-08T18:05:02.892Z,31.00
2023-01-08T18:07:34.294Z,32.40
2023-01-08T18:10:04.056Z,34.40
2023-01-08T18:12:32.825Z,32.90
2023-01-08T18:15:00.911Z,40.30
2023-01-08T18:17:34.220Z,52.40
2023-01-08T18:20:03.096Z,53.80
2023-01-08T18:22:33.535Z,62.10
2023-01-08T18:25:03.643Z,39.90
2023-01-08T18:27:31.812Z,50.30
2023-01-08T18:30:00.049Z,66.70
2023-01-08T18:32:29.061Z,57.20
2023-01-08T18:34:57.382Z,59.50
2023-01-08T18:37:26.562Z,53.10
2023-01-08T18:39:55.339Z,51.70
2023-01-08T18:42:28.981Z,52.30
2023-01-08T18:44:58.363Z,40.00
2023-01-08T18:47:29.297Z,38.20
2023-01-08T18:50:00.432Z,37.50
2023-01-08T18:52:29.634Z,33.60
2023-01-08T18:54:58.099Z,30.80
2023-01-08T18:57:28.631Z,31.90
2023-01-08T18:59:57.121Z,33.20
2023-01-08T19:02:31.161Z,28.40
2023-01-08T19:04:59.393Z,29.00
2023-01-08T19:07:29.674Z,30.60
2023-01-08T19:10:01.081Z,31.90
2023-01-08T19:12:33.199Z,27.70
2023-01-08T19:15:02.533Z,29.00
2023-01-08T19:17:31.620Z,29.10
2023-01-08T19:20:00.217Z,28.10
2023-01-08T19:22:29.540Z,28.10
2023-01-08T19:24:58.535Z,28.20
2023-01-08T19:27:28.015Z,28.00
2023-01-08T19:29:57.007Z,28.40
2023-01-08T19:32:26.752Z,28.80
2023-01-08T19:34:56.763Z,29.50
2023-01-08T19:37:25.623Z,26.30
2023-01-08T19:39:55.054Z,27.70
2023-01-08T19:42:42.225Z,26.70
2023-01-08T19:45:10.914Z,28.30
2023-01-08T19:47:40.132Z,29.50
2023-01-08T19:50:09.909Z,30.00
2023-01-08T19:52:38.543Z,29.70
2023-01-08T19:55:06.891Z,28.10
2023-01-08T19:57:36.252Z,23.90
2023-01-08T20:00:05.172Z,25.40
2023-01-08T20:02:34.136Z,26.50
2023-01-08T20:05:03.567Z,25.80
2023-01-08T20:07:32.252Z,26.20
2023-01-08T20:10:01.627Z,23.50
2023-01-08T20:12:29.987Z,26.40
2023-01-08T20:15:00.897Z,25.50
2023-01-08T20:17:29.354Z,25.80
2023-01-08T20:20:00.056Z,25.20
2023-01-08T20:22:29.657Z,26.00
2023-01-08T20:24:59.204Z,24.80
2023-01-08T20:27:28.836Z,26.10
2023-01-08T20:29:56.970Z,24.50
2023-01-08T20:32:26.883Z,22.60
2023-01-08T20:34:55.470Z,26.10
2023-01-08T20:37:24.057Z,27.20
2023-01-08T20:39:54.484Z,24.80
2023-01-08T20:42:33.447Z,26.90
2023-01-08T20:45:02.265Z,26.20
2023-01-08T20:47:31.720Z,26.20
2023-01-08T20:50:03.206Z,25.10
2023-01-08T20:52:33.774Z,25.00
2023-01-08T20:55:01.748Z,33.40
2023-01-08T20:57:30.221Z,27.50
2023-01-08T20:59:59.219Z,26.10
2023-01-08T21:02:28.971Z,29.70
2023-01-08T21:04:57.404Z,27.10
2023-01-08T21:07:30.622Z,27.40
2023-01-08T21:09:59.285Z,28.40
2023-01-08T21:12:28.734Z,24.50
2023-01-08T21:14:56.967Z,24.60
2023-01-08T21:17:27.343Z,24.60
2023-01-08T21:19:55.481Z,30.30
2023-01-08T21:22:30.863Z,28.20
2023-01-08T21:25:00.511Z,26.60
2023-01-08T21:27:29.798Z,26.60
2023-01-08T21:29:58.080Z,29.10
2023-01-08T21:32:26.663Z,28.20
2023-01-08T21:34:55.166Z,32.00
2023-01-08T21:37:23.823Z,28.60
2023-01-08T21:39:52.007Z,29.40
2023-01-08T21:42:39.114Z,30.10
2023-01-08T21:47:55.621Z,26.50
2023-01-08T21:50:25.237Z,30.00
2023-01-08T21:53:15.229Z,27.40
2023-01-08T21:55:43.468Z,29.80
2023-01-08T21:58:11.612Z,32.00
2023-01-08T22:00:40.397Z,31.50
2023-01-08T22:03:09.512Z,29.80
2023-01-08T22:05:38.247Z,29.40
2023-01-08T22:08:08.885Z,32.20
2023-01-08T22:10:40.431Z,28.70
2023-01-08T22:13:08.798Z,28.40
2023-01-08T22:15:37.822Z,31.00
2023-01-08T22:18:06.645Z,33.50
2023-01-08T22:20:35.057Z,31.30
2023-01-08T22:23:03.248Z,31.60
2023-01-08T22:25:31.518Z,32.20
2023-01-08T22:28:00.001Z,34.80
2023-01-08T22:30:29.402Z,33.60
2023-01-08T22:32:58.091Z,35.50
2023-01-08T22:35:27.076Z,35.00
2023-01-08T22:37:55.857Z,36.20
2023-01-08T22:40:23.764Z,35.20
2023-01-08T22:42:52.299Z,37.30
2023-01-08T22:45:20.910Z,33.00
2023-01-08T22:47:51.617Z,39.60
2023-01-08T22:50:19.686Z,40.30
2023-01-08T22:52:47.697Z,43.00
2023-01-08T22:55:16.552Z,37.60
2023-01-08T22:57:45.344Z,37.80
2023-01-08T23:00:14.021Z,33.90
2023-01-08T23:02:42.575Z,30.70
2023-01-08T23:05:11.486Z,28.60
2023-01-08T23:07:39.677Z,31.70
2023-01-08T23:10:07.800Z,30.20
2023-01-08T23:12:36.007Z,31.80
2023-01-08T23:15:05.310Z,32.10
2023-01-08T23:17:44.619Z,29.30
2023-01-08T23:20:20.063Z,30.30
2023-01-08T23:22:48.990Z,30.60
2023-01-08T23:25:17.454Z,29.70
2023-01-08T23:27:45.843Z,30.10
2023-01-08T23:30:13.812Z,30.00
2023-01-08T23:32:42.590Z,34.50
2023-01-08T23:35:10.523Z,31.20
2023-01-08T23:37:38.473Z,32.80
2023-01-08T23:40:07.106Z,28.50
2023-01-08T23:42:35.109Z,31.20
2023-01-08T23:45:03.737Z,30.70
2023-01-08T23:47:32.067Z,31.10
2023-01-08T23:49:59.935Z,31.70
2023-01-08T23:52:27.947Z,35.90
2023-01-08T23:54:55.735Z,34.00
2023-01-08T23:57:23.602Z,34.50
2023-01-08T23:59:54.067Z,32.00
